Time;durP1;ratioP1;P1;durP2;ratioP2;P2;SDS_P1;SDS_P2;PMS_P1;PMS_P2;Temp;Humidity;BMP_temperature;BMP_pressure;BME280_temperature;BME280_humidity;BME280_pressure;Samples;Min_cycle;Max_cycle;Signal;HPM_P1;HPM_P2
2023/06/19 00:00:52;;;;;;;6.40;5.80;;;24.90;48.10;;;;;;5056008;28;20218;-78
2023/06/19 00:03:19;;;;;;;6.40;5.90;;;24.90;48.10;;;;;;5055864;28;20195;-78
2023/06/19 00:05:45;;;;;;;6.05;5.55;;;24.90;48.10;;;;;;5055938;28;20196;-78
2023/06/19 00:08:12;;;;;;;6.70;6.10;;;24.90;48.10;;;;;;5056940;28;20210;-78
2023/06/19 00:10:41;;;;;;;7.28;5.50;;;24.90;48.10;;;;;;5055620;28;20234;-78
2023/06/19 00:13:08;;;;;;;6.53;6.00;;;24.90;48.10;;;;;;5055539;28;20215;-78
2023/06/19 00:15:35;;;;;;;6.20;5.70;;;24.90;48.10;;;;;;5055700;28;20245;-78
2023/06/19 00:18:02;;;;;;;6.25;5.65;;;24.90;48.10;;;;;;5055627;28;20658;-78
2023/06/19 00:20:29;;;;;;;6.30;5.70;;;24.90;48.80;;;;;;5056890;28;20188;-78
2023/06/19 00:22:56;;;;;;;6.25;5.75;;;24.90;48.20;;;;;;5058358;28;20199;-78
2023/06/19 00:25:23;;;;;;;5.82;5.32;;;24.90;48.20;;;;;;5055975;28;20210;-78
2023/06/19 00:27:51;;;;;;;6.35;5.82;;;24.90;48.20;;;;;;5056184;28;20195;-78
2023/06/19 00:30:18;;;;;;;6.22;5.72;;;24.90;48.20;;;;;;5057295;28;20203;-79
2023/06/19 00:32:49;;;;;;;6.25;5.75;;;24.90;48.20;;;;;;5061666;28;20215;-79
2023/06/19 00:35:18;;;;;;;6.05;5.13;;;24.90;48.20;;;;;;5054539;28;20199;-79
2023/06/19 00:37:45;;;;;;;5.93;5.47;;;24.90;48.20;;;;;;5056698;28;20249;-79
2023/06/19 00:40:17;;;;;;;6.60;6.00;;;24.90;48.20;;;;;;5059091;28;20587;-79
2023/06/19 00:42:44;;;;;;;6.18;5.68;;;24.90;48.20;;;;;;5055266;28;20686;-79
2023/06/19 00:45:13;;;;;;;5.95;5.38;;;24.90;48.20;;;;;;5055790;28;20200;-79
2023/06/19 00:47:39;;;;;;;6.15;5.55;;;24.80;48.10;;;;;;5054906;28;20219;-79
2023/06/19 00:50:07;;;;;;;6.63;6.05;;;24.90;48.20;;;;;;5054933;28;20206;-79
2023/06/19 00:52:35;;;;;;;6.40;5.78;;;24.80;48.10;;;;;;5054806;28;20219;-79
2023/06/19 00:55:03;;;;;;;6.35;5.75;;;24.90;48.20;;;;;;5054810;28;20624;-79
2023/06/19 00:57:31;;;;;;;6.13;5.63;;;24.90;48.20;;;;;;5055090;28;20206;-79
2023/06/19 00:59:58;;;;;;;6.00;5.50;;;24.80;48.20;;;;;;5055038;28;20238;-79
2023/06/19 01:02:26;;;;;;;6.35;5.85;;;24.80;48.20;;;;;;5054829;28;20622;-79
2023/06/19 01:04:54;;;;;;;6.30;5.80;;;24.80;48.10;;;;;;5054873;28;20200;-79
2023/06/19 01:07:28;;;;;;;6.18;5.68;;;24.80;48.20;;;;;;5054718;28;20569;-79
2023/06/19 01:09:58;;;;;;;6.32;5.82;;;24.80;48.20;;;;;;5054740;28;20196;-78
2023/06/19 01:12:30;;;;;;;6.30;5.72;;;24.80;48.10;;;;;;5055398;28;20204;-78
2023/06/19 01:14:59;;;;;;;6.32;5.82;;;24.80;48.10;;;;;;5055482;28;20210;-78
2023/06/19 01:17:28;;;;;;;6.07;5.53;;;24.80;48.20;;;;;;5038773;28;20287;-78
2023/06/19 01:19:55;;;;;;;6.00;5.50;;;24.80;48.20;;;;;;5055369;28;20286;-78
2023/06/19 01:22:27;;;;;;;6.30;5.72;;;24.80;48.10;;;;;;5055435;28;20559;-78
2023/06/19 01:24:53;;;;;;;6.43;5.93;;;24.90;48.30;;;;;;5055527;28;20692;-78
2023/06/19 01:27:21;;;;;;;6.97;5.32;;;24.80;48.20;;;;;;5054662;28;20202;-78
2023/06/19 01:29:48;;;;;;;6.65;6.05;;;24.80;48.10;;;;;;5054555;28;20261;-78
2023/06/19 01:32:18;;;;;;;6.47;5.68;;;24.80;48.10;;;;;;5053978;28;20308;-78
2023/06/19 01:34:45;;;;;;;6.22;5.63;;;24.80;48.00;;;;;;5054645;28;20196;-77
2023/06/19 01:37:12;;;;;;;6.18;5.68;;;24.80;48.00;;;;;;5054030;28;20202;-77
2023/06/19 01:39:40;;;;;;;6.10;5.50;;;24.80;48.00;;;;;;5053962;28;20199;-77
2023/06/19 01:42:11;;;;;;;6.05;5.55;;;24.80;47.90;;;;;;5054056;28;20694;-77
2023/06/19 01:44:38;;;;;;;6.43;5.82;;;24.80;47.90;;;;;;5054045;28;20203;-77
2023/06/19 01:47:09;;;;;;;6.05;5.55;;;24.80;47.90;;;;;;5053607;28;20234;-77
2023/06/19 01:49:37;;;;;;;6.40;5.90;;;24.80;47.90;;;;;;5054019;28;20196;-77
2023/06/19 01:52:05;;;;;;;6.25;5.65;;;24.80;47.80;;;;;;5037234;28;20223;-77
2023/06/19 01:54:32;;;;;;;5.90;5.40;;;24.80;47.90;;;;;;5053593;28;20573;-77
2023/06/19 01:57:01;;;;;;;6.30;5.70;;;24.80;47.90;;;;;;5053654;28;20602;-77
2023/06/19 01:59:28;;;;;;;6.20;5.60;;;24.80;47.80;;;;;;5053570;28;20203;-77
2023/06/19 02:01:55;;;;;;;5.70;5.22;;;24.80;47.80;;;;;;5053500;28;20215;-77
2023/06/19 02:04:22;;;;;;;6.60;6.00;;;24.80;47.80;;;;;;5053272;28;20257;-77
2023/06/19 02:06:49;;;;;;;6.25;5.65;;;24.80;47.80;;;;;;5053499;28;20206;-77
2023/06/19 02:09:16;;;;;;;6.00;5.50;;;24.80;47.80;;;;;;5053434;28;20199;-77
2023/06/19 02:11:43;;;;;;;6.10;5.60;;;24.80;47.90;;;;;;5053322;28;20653;-77
2023/06/19 02:14:12;;;;;;;6.20;5.68;;;24.70;47.80;;;;;;5053157;28;20883;-77
2023/06/19 02:16:40;;;;;;;5.90;5.40;;;24.70;47.70;;;;;;5053285;28;20193;-77
2023/06/19 02:19:09;;;;;;;5.88;5.38;;;24.80;47.90;;;;;;5053797;28;20273;-78
2023/06/19 02:21:39;;;;;;;5.85;5.35;;;24.70;47.80;;;;;;5053662;28;20215;-79
2023/06/19 02:24:06;;;;;;;5.85;5.35;;;24.70;47.80;;;;;;5053177;28;20197;-78
2023/06/19 02:26:33;;;;;;;5.57;5.07;;;24.70;47.70;;;;;;5053012;28;20214;-78
2023/06/19 02:29:01;;;;;;;6.20;5.70;;;24.70;47.70;;;;;;5053355;28;20197;-78
2023/06/19 02:31:30;;;;;;;6.15;5.55;;;24.70;47.90;;;;;;5052783;28;20223;-78
2023/06/19 02:33:58;;;;;;;5.57;5.03;;;24.70;48.00;;;;;;5052979;28;20652;-78
2023/06/19 02:36:25;;;;;;;5.32;4.93;;;24.70;48.00;;;;;;5052946;28;20204;-78
2023/06/19 02:38:52;;;;;;;6.07;5.30;;;24.70;48.00;;;;;;5052758;28;20202;-78
2023/06/19 02:41:22;;;;;;;5.65;5.15;;;24.70;48.10;;;;;;5052863;28;20211;-78
2023/06/19 02:43:49;;;;;;;5.95;5.45;;;24.70;48.10;;;;;;5053157;28;20200;-78
2023/06/19 02:46:16;;;;;;;6.07;5.57;;;24.70;48.20;;;;;;5052934;28;20206;-78
2023/06/19 02:48:45;;;;;;;6.10;5.60;;;24.70;48.20;;;;;;5053279;28;20231;-78
2023/06/19 02:51:11;;;;;;;5.57;5.18;;;24.70;48.30;;;;;;5053772;28;20274;-78
2023/06/19 02:53:39;;;;;;;5.50;5.10;;;24.60;48.20;;;;;;5054837;28;20271;-78
2023/06/19 02:56:07;;;;;;;6.00;5.40;;;24.60;48.20;;;;;;5036271;28;20723;-79
2023/06/19 02:58:34;;;;;;;5.72;5.22;;;24.60;48.30;;;;;;5051953;28;20622;-79
2023/06/19 03:01:01;;;;;;;5.78;5.15;;;24.60;48.30;;;;;;5052470;28;20211;-78
2023/06/19 03:03:28;;;;;;;5.30;4.90;;;24.60;48.40;;;;;;5053274;28;20204;-78
2023/06/19 03:05:56;;;;;;;5.35;4.95;;;24.60;48.60;;;;;;5052829;28;20257;-78
2023/06/19 03:08:24;;;;;;;6.00;5.00;;;24.60;48.90;;;;;;5052507;28;20203;-78
2023/06/19 03:10:51;;;;;;;5.28;4.85;;;24.50;49.10;;;;;;5052740;28;20219;-78
2023/06/19 03:13:18;;;;;;;5.20;4.72;;;24.50;49.10;;;;;;5053295;28;20222;-78
2023/06/19 03:15:44;;;;;;;5.40;4.90;;;24.50;49.00;;;;;;5053563;28;20629;-78
2023/06/19 03:18:12;;;;;;;5.10;4.70;;;24.50;49.00;;;;;;5052664;28;20195;-78
2023/06/19 03:20:40;;;;;;;5.80;5.30;;;24.50;49.00;;;;;;5052738;28;20273;-79
2023/06/19 03:23:08;;;;;;;5.50;4.90;;;24.60;49.20;;;;;;5052390;28;20203;-79
2023/06/19 03:25:36;;;;;;;6.30;5.70;;;24.70;49.20;;;;;;5052371;28;20204;-79
2023/06/19 03:28:05;;;;;;;5.22;4.72;;;24.70;49.10;;;;;;5052429;28;20195;-78
2023/06/19 03:30:33;;;;;;;5.00;4.60;;;24.70;49.00;;;;;;5053037;28;20561;-78
2023/06/19 03:33:00;;;;;;;4.88;4.47;;;24.80;49.10;;;;;;5052230;28;20720;-78
2023/06/19 03:35:40;;;;;;;5.32;4.93;;;24.90;49.10;;;;;;5052448;28;20562;-77
2023/06/19 03:38:10;;;;;;;5.38;4.97;;;24.90;49.00;;;;;;5041706;28;20199;-78
2023/06/19 03:40:38;;;;;;;5.22;4.78;;;25.00;48.80;;;;;;5053116;28;20278;-78
2023/06/19 03:43:11;;;;;;;5.00;4.60;;;25.00;48.70;;;;;;5052184;28;20198;-78
2023/06/19 03:45:38;;;;;;;5.47;5.07;;;25.00;48.70;;;;;;5052717;28;20254;-78
2023/06/19 03:48:07;;;;;;;5.22;4.82;;;25.00;48.70;;;;;;5052718;28;20203;-78
2023/06/19 03:50:35;;;;;;;5.88;5.32;;;25.10;48.70;;;;;;5050236;28;20204;-76
2023/06/19 03:53:01;;;;;;;6.00;5.45;;;25.10;48.50;;;;;;5053410;28;20219;-76
2023/06/19 03:55:30;;;;;;;5.65;5.15;;;25.10;48.40;;;;;;5052223;28;20210;-77
2023/06/19 03:57:57;;;;;;;5.50;5.10;;;25.10;48.40;;;;;;5053425;28;20554;-77
2023/06/19 04:00:24;;;;;;;5.85;5.28;;;25.10;48.40;;;;;;5046190;28;20677;-77
2023/06/19 04:02:51;;;;;;;5.80;4.78;;;25.10;48.50;;;;;;5052097;28;20658;-76
2023/06/19 04:05:19;;;;;;;5.60;5.10;;;25.10;48.60;;;;;;5051930;28;20252;-76
2023/06/19 04:07:46;;;;;;;5.55;5.05;;;25.10;48.70;;;;;;5052213;28;20196;-78
2023/06/19 04:10:15;;;;;;;5.35;4.95;;;25.10;49.00;;;;;;5053617;28;20206;-76
2023/06/19 04:12:45;;;;;;;5.60;5.05;;;25.10;49.10;;;;;;5047965;28;20304;-76
2023/06/19 04:15:12;;;;;;;5.35;4.85;;;25.20;49.20;;;;;;5053936;28;20226;-77
2023/06/19 04:17:39;;;;;;;5.10;4.70;;;25.10;49.70;;;;;;5055719;28;20207;-77
2023/06/19 04:20:10;;;;;;;4.55;4.15;;;25.00;52.30;;;;;;5053607;28;20199;-77
2023/06/19 04:22:39;;;;;;;5.38;4.85;;;24.90;53.10;;;;;;5050243;28;20273;-78
2023/06/19 04:25:07;;;;;;;5.22;4.82;;;24.90;54.00;;;;;;5055760;28;20650;-78
2023/06/19 04:27:34;;;;;;;5.10;4.70;;;24.90;54.20;;;;;;5054612;28;20195;-78
2023/06/19 04:30:03;;;;;;;5.20;4.70;;;24.80;54.90;;;;;;5056894;28;20553;-78
2023/06/19 04:32:30;;;;;;;4.90;4.50;;;24.70;55.00;;;;;;5055585;28;20569;-78
2023/06/19 04:34:58;;;;;;;5.07;4.63;;;24.70;55.10;;;;;;5056069;28;20601;-78
2023/06/19 04:37:25;;;;;;;5.45;4.65;;;24.70;55.50;;;;;;5055393;28;20195;-78
2023/06/19 04:39:52;;;;;;;4.20;3.90;;;24.60;55.10;;;;;;5055433;28;20195;-77
2023/06/19 04:42:20;;;;;;;4.63;3.88;;;24.60;54.50;;;;;;5055155;28;20265;-77
2023/06/19 04:44:47;;;;;;;4.78;4.38;;;24.50;54.90;;;;;;5055299;28;20199;-78
2023/06/19 04:47:18;;;;;;;5.20;4.80;;;24.60;55.70;;;;;;5056569;28;20203;-78
2023/06/19 04:49:45;;;;;;;4.65;4.32;;;24.50;56.10;;;;;;5056464;28;20176;-78
2023/06/19 04:52:12;;;;;;;4.55;4.15;;;24.50;56.30;;;;;;5055213;28;20605;-78
2023/06/19 04:54:39;;;;;;;4.95;4.38;;;24.50;56.00;;;;;;5054938;28;20651;-79
2023/06/19 04:57:06;;;;;;;4.10;3.80;;;24.50;56.40;;;;;;5055379;28;20233;-78
2023/06/19 04:59:33;;;;;;;4.78;4.35;;;24.60;54.60;;;;;;5056831;28;20215;-78
2023/06/19 05:02:00;;;;;;;4.43;4.05;;;24.60;53.30;;;;;;5055157;28;20222;-79
2023/06/19 05:04:30;;;;;;;4.43;4.00;;;24.70;53.30;;;;;;5055019;28;20204;-78
2023/06/19 05:06:57;;;;;;;4.30;3.90;;;24.80;53.10;;;;;;5054696;28;20199;-78
2023/06/19 05:09:24;;;;;;;4.53;4.13;;;24.80;52.70;;;;;;5054607;28;20200;-78
2023/06/19 05:11:51;;;;;;;4.55;4.13;;;24.90;52.80;;;;;;5054718;28;20707;-78
2023/06/19 05:14:18;;;;;;;4.18;3.80;;;24.90;52.10;;;;;;5054674;28;20700;-78
2023/06/19 05:16:45;;;;;;;4.55;4.15;;;25.10;51.90;;;;;;5054358;28;20206;-78
2023/06/19 05:19:12;;;;;;;3.85;3.55;;;25.20;51.60;;;;;;5055194;28;20230;-78
2023/06/19 05:21:40;;;;;;;4.47;4.18;;;25.30;51.30;;;;;;5053307;28;20674;-78
2023/06/19 05:24:07;;;;;;;4.40;4.00;;;25.40;50.80;;;;;;5054184;28;20286;-78
2023/06/19 05:26:34;;;;;;;4.22;3.92;;;25.50;50.50;;;;;;5054950;28;20249;-78
2023/06/19 05:29:01;;;;;;;3.88;3.58;;;25.50;50.10;;;;;;5054148;28;20196;-78
2023/06/19 05:31:29;;;;;;;3.78;3.47;;;25.60;50.10;;;;;;5055391;28;20337;-78
2023/06/19 05:33:56;;;;;;;4.50;4.10;;;25.60;50.00;;;;;;5054095;28;20310;-78
2023/06/19 05:36:23;;;;;;;5.03;4.30;;;25.60;50.00;;;;;;5054070;28;20200;-78
2023/06/19 05:38:52;;;;;;;4.30;4.00;;;25.60;50.00;;;;;;5054463;28;20296;-78
2023/06/19 05:41:19;;;;;;;3.83;3.53;;;25.60;49.90;;;;;;5053847;28;20219;-78
2023/06/19 05:43:46;;;;;;;4.20;3.90;;;25.60;50.00;;;;;;5053889;28;20199;-78
2023/06/19 05:46:13;;;;;;;4.50;4.13;;;25.60;50.00;;;;;;5096442;22;20183;-81
2023/06/19 05:48:40;;;;;;;4.57;4.18;;;25.60;49.90;;;;;;5054733;28;20229;-82
2023/06/19 05:51:08;;;;;;;4.50;4.10;;;25.60;49.70;;;;;;5055186;28;20223;-82
2023/06/19 05:53:35;;;;;;;4.20;3.83;;;25.50;49.70;;;;;;5038521;28;20215;-82
2023/06/19 05:56:03;;;;;;;4.80;4.40;;;25.60;49.70;;;;;;5054970;28;20198;-82
2023/06/19 05:58:30;;;;;;;4.97;4.18;;;25.60;49.60;;;;;;5038527;28;20207;-82
2023/06/19 06:00:58;;;;;;;4.57;4.15;;;25.60;50.10;;;;;;5055613;28;20763;-82
2023/06/19 06:03:25;;;;;;;4.60;4.20;;;25.70;49.30;;;;;;5055563;28;20206;-82
2023/06/19 06:05:52;;;;;;;4.82;4.30;;;25.80;49.10;;;;;;5055400;28;20227;-82
2023/06/19 06:08:20;;;;;;;5.60;4.43;;;25.90;48.90;;;;;;5055370;28;20541;-82
2023/06/19 06:10:47;;;;;;;4.50;4.10;;;25.90;48.70;;;;;;5055313;28;20701;-82
2023/06/19 06:13:16;;;;;;;5.03;4.50;;;26.00;48.70;;;;;;5055132;28;20204;-82
2023/06/19 06:15:43;;;;;;;4.70;3.95;;;26.00;48.60;;;;;;5055341;28;20210;-82
2023/06/19 06:18:10;;;;;;;4.80;4.30;;;26.00;48.50;;;;;;5055010;28;20203;-82
2023/06/19 06:20:37;;;;;;;5.72;4.72;;;26.10;48.50;;;;;;5058682;28;20267;-82
2023/06/19 06:23:04;;;;;;;4.72;4.32;;;26.10;48.30;;;;;;5073789;28;20203;-82
2023/06/19 06:25:31;;;;;;;4.90;4.40;;;26.10;48.30;;;;;;5074600;28;20230;-82
2023/06/19 06:27:58;;;;;;;5.57;4.72;;;26.10;48.20;;;;;;5074648;28;20222;-82
2023/06/19 06:30:27;;;;;;;5.72;4.63;;;26.10;48.20;;;;;;5060351;28;20221;-82
2023/06/19 06:32:55;;;;;;;4.97;4.57;;;26.20;48.10;;;;;;5060024;28;20202;-82
2023/06/19 06:35:22;;;;;;;4.85;4.45;;;26.20;47.90;;;;;;5058511;28;20697;-82
2023/06/19 06:37:50;;;;;;;5.75;4.90;;;26.30;47.80;;;;;;5058141;28;20194;-82
2023/06/19 06:40:17;;;;;;;5.22;4.75;;;26.30;47.60;;;;;;5037454;28;20191;-82
2023/06/19 06:42:44;;;;;;;5.10;4.60;;;26.40;47.60;;;;;;5053493;28;20226;-82
2023/06/19 06:45:12;;;;;;;4.82;4.43;;;26.40;47.40;;;;;;5056725;28;20680;-82
2023/06/19 06:47:40;;;;;;;4.70;4.30;;;26.50;47.20;;;;;;5057623;28;20210;-82
2023/06/19 06:50:09;;;;;;;4.95;4.55;;;26.70;46.90;;;;;;5054627;28;20654;-82
2023/06/19 06:52:36;;;;;;;5.55;4.90;;;26.80;46.50;;;;;;5053422;28;20217;-82
2023/06/19 06:55:04;;;;;;;5.25;4.85;;;27.00;46.30;;;;;;5053220;28;20595;-82
2023/06/19 06:57:31;;;;;;;5.63;5.13;;;27.10;45.90;;;;;;5053499;28;20248;-83
2023/06/19 06:59:58;;;;;;;5.85;5.22;;;27.20;45.70;;;;;;5053138;28;20298;-83
2023/06/19 07:02:25;;;;;;;5.10;4.70;;;27.30;45.50;;;;;;5053372;28;20284;-83
2023/06/19 07:04:54;;;;;;;6.32;5.30;;;27.30;45.40;;;;;;5053376;28;20613;-83
2023/06/19 07:07:21;;;;;;;5.50;4.95;;;27.30;45.60;;;;;;5055541;28;20653;-83
2023/06/19 07:09:48;;;;;;;6.55;5.38;;;27.20;45.70;;;;;;5056445;28;20676;-83
2023/06/19 07:12:16;;;;;;;6.85;5.60;;;27.10;45.80;;;;;;5056535;28;20214;-83
2023/06/19 07:14:43;;;;;;;7.20;5.20;;;27.00;46.00;;;;;;5055782;28;20685;-83
2023/06/19 07:17:10;;;;;;;6.72;5.45;;;27.00;46.20;;;;;;5056076;28;20194;-82
2023/06/19 07:19:37;;;;;;;6.47;5.78;;;26.90;46.30;;;;;;5055853;28;20203;-82
2023/06/19 07:22:06;;;;;;;6.18;5.65;;;26.80;46.30;;;;;;5054180;28;20221;-82
2023/06/19 07:24:34;;;;;;;5.80;5.22;;;26.80;46.30;;;;;;5053923;28;20195;-82
2023/06/19 07:27:01;;;;;;;6.20;5.60;;;26.80;46.30;;;;;;5056885;28;20191;-82
2023/06/19 07:29:28;;;;;;;6.57;5.38;;;26.80;46.30;;;;;;5061741;28;20194;-82
2023/06/19 07:31:55;;;;;;;6.75;5.63;;;26.90;46.80;;;;;;5054238;28;20207;-82
2023/06/19 07:34:22;;;;;;;6.10;5.00;;;27.10;45.90;;;;;;5053009;28;20242;-82
2023/06/19 07:36:49;;;;;;;7.40;5.60;;;27.20;45.50;;;;;;5052848;28;20205;-82
2023/06/19 07:39:17;;;;;;;6.95;5.47;;;27.40;45.20;;;;;;5053173;28;20199;-82
2023/06/19 07:41:45;;;;;;;6.35;5.38;;;27.60;44.90;;;;;;5053093;28;20755;-82
2023/06/19 07:44:12;;;;;;;5.57;5.07;;;27.70;44.70;;;;;;5053433;28;20210;-82
2023/06/19 07:46:40;;;;;;;6.07;5.47;;;27.90;44.50;;;;;;5057979;28;20206;-83
2023/06/19 07:49:07;;;;;;;5.93;5.35;;;28.00;45.10;;;;;;5057310;28;20289;-83
2023/06/19 07:51:34;;;;;;;6.25;5.15;;;28.00;44.40;;;;;;5057185;28;20656;-82
2023/06/19 07:54:01;;;;;;;5.22;4.72;;;28.10;44.30;;;;;;5057257;28;20652;-83
2023/06/19 07:56:30;;;;;;;6.43;5.05;;;28.20;44.10;;;;;;5057286;28;20199;-83
2023/06/19 07:58:57;;;;;;;6.53;5.13;;;28.20;43.90;;;;;;5057479;28;20199;-83
2023/06/19 08:01:24;;;;;;;6.38;5.32;;;28.30;43.80;;;;;;5057706;28;20222;-83
2023/06/19 08:03:52;;;;;;;6.13;5.28;;;28.40;43.90;;;;;;5057551;28;20201;-83
2023/06/19 08:06:19;;;;;;;5.75;5.15;;;28.40;43.80;;;;;;5056872;28;20227;-83
2023/06/19 08:08:46;;;;;;;6.07;5.47;;;28.40;43.90;;;;;;5057478;28;20604;-83
2023/06/19 08:11:13;;;;;;;5.78;5.28;;;28.40;43.70;;;;;;5057346;28;20250;-83
2023/06/19 08:13:42;;;;;;;6.72;5.47;;;28.40;43.60;;;;;;5056744;28;20620;-83
2023/06/19 08:16:10;;;;;;;6.20;5.60;;;28.40;43.70;;;;;;5056115;28;20257;-83
2023/06/19 08:18:37;;;;;;;5.97;5.35;;;28.40;43.60;;;;;;5056494;28;20226;-83
2023/06/19 08:21:04;;;;;;;5.55;5.00;;;28.30;43.70;;;;;;5056212;28;20785;-83
2023/06/19 08:23:31;;;;;;;5.68;5.10;;;28.20;43.90;;;;;;5056583;28;20244;-83
2023/06/19 08:25:58;;;;;;;5.10;4.70;;;28.10;44.10;;;;;;5040129;28;20289;-83
2023/06/19 08:28:25;;;;;;;5.90;5.40;;;28.00;44.30;;;;;;5057021;28;20272;-83
2023/06/19 08:30:54;;;;;;;5.30;4.80;;;27.90;44.50;;;;;;5056513;28;20265;-82
2023/06/19 08:33:21;;;;;;;5.72;5.22;;;27.80;44.70;;;;;;5056628;28;20199;-83
2023/06/19 08:35:48;;;;;;;5.60;5.03;;;27.70;44.70;;;;;;5056093;28;20224;-83
2023/06/19 08:38:15;;;;;;;5.63;5.13;;;27.60;44.80;;;;;;5056207;28;20684;-83
2023/06/19 08:40:42;;;;;;;6.15;5.55;;;27.60;44.90;;;;;;5056174;28;20268;-82
2023/06/19 08:43:09;;;;;;;5.65;5.15;;;27.60;45.00;;;;;;5057206;28;20191;-82
2023/06/19 08:45:36;;;;;;;5.20;4.80;;;27.50;44.90;;;;;;5056932;28;20537;-82
2023/06/19 08:48:05;;;;;;;5.05;4.50;;;27.50;44.90;;;;;;5055669;28;20217;-82
2023/06/19 08:50:38;;;;;;;5.35;4.85;;;27.50;45.00;;;;;;5056057;28;20648;-82
2023/06/19 08:53:06;;;;;;;5.50;5.10;;;27.50;45.00;;;;;;5055533;28;20202;-82
2023/06/19 08:55:34;;;;;;;5.53;5.03;;;27.60;44.70;;;;;;5055085;28;20218;-82
2023/06/19 08:58:01;;;;;;;5.30;4.80;;;27.80;44.50;;;;;;5055950;28;20260;-82
2023/06/19 09:00:29;;;;;;;5.20;4.75;;;27.90;44.10;;;;;;5055625;28;20205;-82
2023/06/19 09:03:00;;;;;;;5.68;5.18;;;28.10;43.90;;;;;;5055599;28;20203;-82
2023/06/19 09:05:29;;;;;;;5.82;5.32;;;28.20;43.60;;;;;;5055694;28;20766;-82
2023/06/19 09:07:57;;;;;;;5.15;4.65;;;28.40;43.40;;;;;;5055707;28;20206;-82
2023/06/19 09:10:24;;;;;;;5.75;5.15;;;28.40;43.10;;;;;;5056850;28;20214;-82
2023/06/19 09:13:01;;;;;;;5.45;4.93;;;28.50;42.80;;;;;;5055812;28;20202;-82
2023/06/19 09:15:29;;;;;;;5.43;4.63;;;28.60;42.70;;;;;;5056257;28;20225;-82
2023/06/19 09:18:04;;;;;;;5.72;5.15;;;28.70;42.50;;;;;;5055219;28;20210;-82
2023/06/19 09:20:33;;;;;;;5.68;5.18;;;28.80;42.30;;;;;;5054982;28;20206;-82
2023/06/19 09:23:00;;;;;;;5.78;5.28;;;28.80;42.20;;;;;;5054809;28;20661;-82
2023/06/19 09:25:27;;;;;;;5.28;4.82;;;28.90;42.20;;;;;;5054734;28;20195;-82
2023/06/19 09:27:55;;;;;;;5.20;4.70;;;28.90;42.00;;;;;;5038153;28;20194;-81
2023/06/19 09:30:21;;;;;;;5.05;4.50;;;28.90;41.90;;;;;;5054907;28;20199;-82
2023/06/19 09:32:49;;;;;;;5.20;4.70;;;28.90;41.70;;;;;;5038252;28;20201;-82
2023/06/19 09:35:16;;;;;;;6.03;5.03;;;28.90;41.70;;;;;;5054271;28;20226;-82
2023/06/19 09:37:45;;;;;;;5.38;4.88;;;29.00;41.80;;;;;;5056374;28;20285;-82
2023/06/19 09:40:12;;;;;;;5.65;5.18;;;29.00;41.70;;;;;;5063043;28;20199;-82
2023/06/19 09:42:39;;;;;;;5.00;4.60;;;28.90;41.80;;;;;;5056035;28;20214;-82
2023/06/19 09:45:12;;;;;;;4.90;4.43;;;28.80;41.90;;;;;;5056207;28;20226;-82
2023/06/19 09:47:40;;;;;;;5.40;4.90;;;28.80;42.00;;;;;;5055717;28;20211;-82
2023/06/19 09:50:08;;;;;;;5.38;4.88;;;28.70;42.20;;;;;;5039759;28;20229;-82
2023/06/19 09:52:35;;;;;;;4.85;4.45;;;28.60;42.30;;;;;;5055601;28;20225;-82
2023/06/19 09:55:09;;;;;;;5.32;4.85;;;28.60;42.40;;;;;;5056141;28;20238;-82
2023/06/19 09:57:36;;;;;;;4.85;4.45;;;28.50;42.50;;;;;;5056855;28;20194;-82
2023/06/19 10:00:11;;;;;;;5.15;4.68;;;28.40;42.50;;;;;;5055482;28;20226;-82
2023/06/19 10:02:41;;;;;;;5.10;4.60;;;28.50;42.60;;;;;;5055914;28;20215;-82
2023/06/19 10:05:12;;;;;;;4.97;4.50;;;28.50;42.50;;;;;;5055613;28;20249;-82
2023/06/19 10:07:40;;;;;;;4.70;4.30;;;28.60;42.40;;;;;;5054947;28;20199;-82
2023/06/19 10:10:10;;;;;;;5.35;4.65;;;28.60;42.20;;;;;;5054893;28;20199;-82
2023/06/19 10:12:41;;;;;;;4.90;4.50;;;28.70;42.10;;;;;;5056403;28;20570;-82
2023/06/19 10:15:13;;;;;;;5.38;4.88;;;28.70;41.90;;;;;;5055150;28;20289;-82
2023/06/19 10:17:44;;;;;;;4.75;4.35;;;28.80;41.90;;;;;;5055383;28;20604;-82
2023/06/19 10:20:23;;;;;;;4.82;4.43;;;28.80;41.80;;;;;;5054033;28;20613;-82
2023/06/19 10:22:56;;;;;;;5.10;4.68;;;28.80;41.70;;;;;;5050871;28;20203;-82
2023/06/19 10:25:25;;;;;;;4.50;4.10;;;28.80;41.70;;;;;;5054313;28;20531;-82
2023/06/19 10:27:54;;;;;;;4.65;4.30;;;28.70;41.80;;;;;;5054034;28;20715;-82
2023/06/19 10:30:21;;;;;;;4.72;4.32;;;28.70;42.60;;;;;;5053683;28;20209;-82
2023/06/19 10:32:48;;;;;;;4.82;4.43;;;28.70;42.10;;;;;;5054119;28;20203;-82
2023/06/19 10:35:16;;;;;;;5.25;4.78;;;28.60;42.30;;;;;;5054006;28;20623;-82
2023/06/19 10:37:43;;;;;;;4.63;4.22;;;28.50;42.50;;;;;;5053929;28;20228;-82
2023/06/19 10:40:12;;;;;;;4.70;4.30;;;28.50;42.70;;;;;;5053567;28;20202;-82
2023/06/19 10:42:41;;;;;;;5.07;4.68;;;28.40;42.70;;;;;;5054044;28;20309;-82
2023/06/19 10:45:09;;;;;;;5.30;4.80;;;28.40;42.70;;;;;;5053527;28;20195;-82
2023/06/19 10:47:38;;;;;;;5.07;4.68;;;28.40;42.80;;;;;;5053526;28;20205;-82
2023/06/19 10:50:06;;;;;;;5.18;4.78;;;28.40;42.90;;;;;;5053506;28;20195;-82
2023/06/19 10:52:33;;;;;;;4.90;4.50;;;28.40;43.10;;;;;;5053170;28;20223;-83
2023/06/19 10:55:01;;;;;;;5.10;4.70;;;28.30;43.10;;;;;;5053389;28;20332;-83
2023/06/19 10:57:29;;;;;;;5.35;4.88;;;28.30;43.10;;;;;;5053326;28;20199;-83
2023/06/19 10:59:59;;;;;;;4.78;4.38;;;28.30;43.20;;;;;;5053196;28;20664;-83
2023/06/19 11:02:26;;;;;;;5.20;4.70;;;28.30;43.20;;;;;;5054841;28;20344;-83
2023/06/19 11:04:54;;;;;;;5.43;4.97;;;28.30;43.30;;;;;;5064331;28;20199;-83
2023/06/19 11:07:22;;;;;;;5.07;4.68;;;28.20;43.30;;;;;;5058756;28;20195;-83
2023/06/19 11:09:49;;;;;;;4.68;4.28;;;28.20;43.40;;;;;;5072039;28;20209;-83
2023/06/19 11:12:20;;;;;;;4.90;4.50;;;28.20;43.40;;;;;;5056832;28;20218;-83
2023/06/19 11:14:48;;;;;;;5.25;4.85;;;28.20;43.40;;;;;;5053979;28;20645;-83
2023/06/19 11:17:18;;;;;;;5.00;4.60;;;28.10;43.40;;;;;;5053019;28;20621;-83
2023/06/19 11:19:47;;;;;;;4.88;4.47;;;28.10;43.40;;;;;;5056295;28;20213;-83
2023/06/19 11:22:15;;;;;;;5.05;4.65;;;28.10;43.50;;;;;;5053350;28;20225;-83
2023/06/19 11:24:45;;;;;;;4.88;4.47;;;28.10;43.60;;;;;;5037324;28;20658;-83
2023/06/19 11:27:27;;;;;;;4.90;4.50;;;28.10;43.60;;;;;;5054004;28;20680;-82
2023/06/19 11:29:56;;;;;;;4.90;4.50;;;28.10;43.60;;;;;;5053927;28;20199;-82
2023/06/19 11:32:25;;;;;;;5.00;4.60;;;28.10;43.60;;;;;;5053806;28;20280;-82
2023/06/19 11:34:52;;;;;;;5.03;4.53;;;28.10;43.70;;;;;;5053520;28;20676;-83
2023/06/19 11:37:20;;;;;;;4.97;4.57;;;28.10;43.60;;;;;;5054786;28;20194;-83
2023/06/19 11:39:49;;;;;;;4.70;4.30;;;28.10;43.60;;;;;;5055521;28;20372;-83
2023/06/19 11:42:17;;;;;;;4.60;4.20;;;28.10;43.70;;;;;;5055415;28;20301;-83
2023/06/19 11:44:54;;;;;;;4.93;4.53;;;28.10;43.70;;;;;;5055005;28;20241;-83
2023/06/19 11:47:21;;;;;;;4.85;4.45;;;28.10;43.70;;;;;;5054671;28;20213;-83
2023/06/19 11:49:51;;;;;;;4.65;4.25;;;28.10;43.70;;;;;;5054710;28;20253;-83
2023/06/19 11:52:18;;;;;;;5.43;4.47;;;28.10;43.70;;;;;;5055490;28;20713;-83
2023/06/19 11:54:45;;;;;;;5.35;4.85;;;28.10;43.70;;;;;;5055367;28;20199;-83
2023/06/19 11:57:12;;;;;;;5.13;4.70;;;28.10;43.70;;;;;;5055198;28;20257;-83
2023/06/19 11:59:41;;;;;;;4.72;4.32;;;28.10;43.70;;;;;;5055343;28;20230;-83
2023/06/19 12:02:08;;;;;;;4.45;4.05;;;28.10;43.70;;;;;;5054910;28;20219;-83
2023/06/19 12:04:35;;;;;;;4.97;4.57;;;28.10;43.70;;;;;;5038482;28;20650;-83
2023/06/19 12:07:04;;;;;;;4.72;4.32;;;28.10;43.70;;;;;;5054482;28;20199;-83
2023/06/19 12:09:31;;;;;;;4.78;4.38;;;28.10;43.70;;;;;;5054889;28;20286;-83
2023/06/19 12:12:00;;;;;;;4.57;4.18;;;28.10;43.70;;;;;;5055002;28;20246;-83
2023/06/19 12:14:27;;;;;;;4.40;4.00;;;28.10;43.80;;;;;;5054902;28;20209;-83
2023/06/19 12:16:54;;;;;;;4.75;4.32;;;28.00;43.80;;;;;;5056015;28;20219;-83
2023/06/19 12:19:21;;;;;;;4.80;4.40;;;28.00;43.80;;;;;;5054871;28;20297;-83
2023/06/19 12:21:48;;;;;;;4.45;4.05;;;28.00;43.80;;;;;;5053450;28;20226;-83
2023/06/19 12:24:16;;;;;;;4.53;4.22;;;28.00;43.90;;;;;;5052114;28;20202;-83
2023/06/19 12:26:44;;;;;;;4.30;4.00;;;28.00;43.90;;;;;;5019552;28;20281;-83
2023/06/19 12:29:11;;;;;;;4.50;4.10;;;28.00;44.00;;;;;;5052381;28;20257;-83
2023/06/19 12:31:39;;;;;;;4.65;4.32;;;27.90;44.00;;;;;;5054613;28;20605;-83
2023/06/19 12:34:06;;;;;;;4.38;4.07;;;27.90;43.90;;;;;;5057462;28;20273;-83
2023/06/19 12:36:33;;;;;;;4.70;4.30;;;27.90;44.00;;;;;;5055749;28;20705;-83
2023/06/19 12:39:01;;;;;;;4.40;4.00;;;27.90;44.10;;;;;;5055803;28;20290;-83
2023/06/19 12:41:30;;;;;;;4.43;4.13;;;27.90;44.10;;;;;;5056096;28;20226;-83
2023/06/19 12:43:57;;;;;;;4.70;4.30;;;27.90;44.00;;;;;;5055944;28;20229;-83
2023/06/19 12:46:24;;;;;;;4.60;4.20;;;27.90;44.00;;;;;;5055693;28;20198;-82
2023/06/19 12:48:52;;;;;;;4.70;4.30;;;28.00;44.00;;;;;;5062459;28;20191;-82
2023/06/19 12:51:19;;;;;;;4.53;4.22;;;27.90;43.90;;;;;;5073854;28;20222;-82